Weather at Lester B. Pearson International Airport

Public forecast

Using degrees Celsius for public forecast. Weather courtesy of forecast.io.

Current aviation weather report (METAR) for Lester B. Pearson International Airport

Retrieved 2021/10/22 06:00 UTC (39 minutes ago):

CYYZ 220600Z 33017G23KT 15SM SCT015 BKN050 08/06 A2979 RMK SC3SC3 SLP092

Aviation forecast (TAF) for Lester B. Pearson International Airport

Retrieved 2021/10/22 06:46 UTC (0 seconds ago):

TAF CYYZ 220543Z 2206/2312 33015G25KT P6SM SCT015 BKN050 TEMPO 2206/2216 BKN015 OVC050 BECMG 2209/2211 34010KT FM221600 34010KT P6SM BKN025 FM222200 01007KT P6SM SCT030 BKN180 RMK NXT FCST BY 220900Z